Time,TemperatureF,DewpointF,PressureIn,WindDirection,WindDirectionDegrees,WindSpeedMPH,WindSpeedGustMPH,Humidity,HourlyPrecipIn,Conditions,Clouds,dailyrainin,SoftwareType,DateUTC
2013-10-31 00:01:00,73.2,66.0,29.91,SSE,163,8.7,8.7,78,0.00,,SKC,0.00,VWS V13.01,2013-10-31 05:01:00,
2013-10-31 00:06:00,73.2,66.0,29.91,South,180,7.6,8.7,78,0.00,,SKC,0.00,VWS V13.01,2013-10-31 05:06:00,
2013-10-31 00:11:00,73.2,66.0,29.91,SW,233,5.8,8.1,78,0.00,,SKC,0.00,VWS V13.01,2013-10-31 05:11:00,
2013-10-31 00:16:00,73.2,66.7,29.91,SSE,164,4.9,5.8,80,0.00,,SKC,0.00,VWS V13.01,2013-10-31 05:16:00,
2013-10-31 00:21:00,73.2,66.7,29.91,South,188,7.6,11.0,80,0.00,,SKC,0.00,VWS V13.01,2013-10-31 05:21:00,
2013-10-31 00:26:00,73.2,66.7,29.91,SSW,199,5.8,7.6,80,0.00,,SKC,0.00,VWS V13.01,2013-10-31 05:26:00,
2013-10-31 00:31:00,73.2,66.7,29.91,SSE,165,5.4,5.4,80,0.00,,SKC,0.00,VWS V13.01,2013-10-31 05:31:00,
2013-10-31 00:36:00,73.2,67.4,29.91,South,171,5.8,9.6,82,0.00,,SKC,0.00,VWS V13.01,2013-10-31 05:36:00,
2013-10-31 00:41:00,73.2,67.4,29.91,SSE,167,4.9,5.8,82,0.00,,SKC,0.00,VWS V13.01,2013-10-31 05:41:00,
2013-10-31 00:46:00,73.2,67.4,29.91,South,180,5.8,6.3,82,0.00,,SKC,0.00,VWS V13.01,2013-10-31 05:46:00,
2013-10-31 00:51:00,73.2,67.4,29.91,South,169,5.4,5.4,82,0.00,,SKC,0.00,VWS V13.01,2013-10-31 05:51:00,
2013-10-31 00:55:00,73.2,67.4,29.91,ESE,109,0.0,3.6,82,0.00,,SKC,0.00,VWS V13.01,2013-10-31 05:55:00,
2013-10-31 01:00:00,73.2,67.4,29.91,South,187,4.9,5.4,82,0.00,,SKC,0.00,VWS V13.01,2013-10-31 06:00:00,
2013-10-31 01:05:00,73.0,67.2,29.91,SSW,192,8.1,8.1,82,0.00,,SKC,0.00,VWS V13.01,2013-10-31 06:05:00,
2013-10-31 01:10:00,73.0,67.9,29.91,South,189,5.4,5.4,84,0.00,,SKC,0.00,VWS V13.01,2013-10-31 06:10:00,
2013-10-31 01:15:00,73.0,67.9,29.91,SSE,164,5.4,7.2,84,0.00,,SKC,0.00,VWS V13.01,2013-10-31 06:15:00,
2013-10-31 01:20:00,72.9,67.8,29.91,South,176,8.7,8.7,84,0.00,,SKC,0.00,VWS V13.01,2013-10-31 06:20:00,
2013-10-31 01:25:00,72.9,68.4,29.91,SE,145,3.1,3.6,86,0.00,,SKC,0.00,VWS V13.01,2013-10-31 06:25:00,
2013-10-31 01:30:00,72.9,68.4,29.88,SSE,165,8.1,8.1,86,0.00,,SKC,0.00,VWS V13.01,2013-10-31 06:30:00,
2013-10-31 01:35:00,72.9,68.4,29.88,South,190,4.5,5.8,86,0.00,,SKC,0.00,VWS V13.01,2013-10-31 06:35:00,
2013-10-31 01:40:00,72.7,68.9,29.88,SSE,168,0.0,4.9,88,0.00,,SKC,0.00,VWS V13.01,2013-10-31 06:40:00,
2013-10-31 01:45:00,72.7,68.9,29.88,SSE,162,3.1,4.0,88,0.00,,SKC,0.00,VWS V13.01,2013-10-31 06:45:00,
2013-10-31 01:50:00,72.7,68.9,29.88,South,177,8.1,8.1,88,0.00,,SKC,0.00,VWS V13.01,2013-10-31 06:50:00,
2013-10-31 01:55:00,72.5,69.4,29.88,South,182,5.8,5.8,90,0.00,,SKC,0.00,VWS V13.01,2013-10-31 06:55:00,
2013-10-31 02:00:00,72.5,69.4,29.88,South,180,2.7,2.7,90,0.00,,SKC,0.00,VWS V13.01,2013-10-31 07:00:00,
2013-10-31 02:05:00,72.5,70.1,29.88,South,176,3.6,4.9,92,0.00,,SKC,0.00,VWS V13.01,2013-10-31 07:05:00,
2013-10-31 02:10:00,72.5,70.1,29.88,SSE,164,4.9,4.9,92,0.00,,SKC,0.00,VWS V13.01,2013-10-31 07:10:00,
2013-10-31 02:15:00,72.5,70.1,29.88,South,184,5.4,6.3,92,0.00,,SKC,0.00,VWS V13.01,2013-10-31 07:15:00,
2013-10-31 02:20:00,72.5,70.1,29.88,South,183,3.1,5.4,92,0.00,,SKC,0.00,VWS V13.01,2013-10-31 07:20:00,
2013-10-31 02:25:00,72.5,70.1,29.88,South,172,3.1,3.1,92,0.00,,SKC,0.00,VWS V13.01,2013-10-31 07:25:00,
2013-10-31 02:30:00,72.5,70.7,29.88,South,171,4.0,4.0,94,0.00,,SKC,0.00,VWS V13.01,2013-10-31 07:30:00,
2013-10-31 02:35:00,72.5,70.7,29.88,SSE,155,3.1,5.8,94,0.00,,SKC,0.00,VWS V13.01,2013-10-31 07:35:00,
2013-10-31 02:40:00,72.5,70.7,29.88,SSW,196,5.4,5.4,94,0.00,,SKC,0.00,VWS V13.01,2013-10-31 07:40:00,
2013-10-31 02:45:00,72.5,71.3,29.88,South,184,7.6,7.6,96,0.00,,SKC,0.00,VWS V13.01,2013-10-31 07:45:00,
2013-10-31 02:50:00,72.5,71.3,29.88,ESE,116,3.1,3.6,96,0.00,,SKC,0.00,VWS V13.01,2013-10-31 07:50:00,
2013-10-31 02:55:00,72.5,71.3,29.88,SSE,165,2.7,7.2,96,0.00,,SKC,0.00,VWS V13.01,2013-10-31 07:55:00,
2013-10-31 03:00:00,72.5,71.3,29.88,SSW,200,6.3,10.1,96,0.00,,SKC,0.00,VWS V13.01,2013-10-31 08:00:00,
2013-10-31 03:05:00,72.5,71.3,29.88,South,171,5.8,5.8,96,0.00,,SKC,0.00,VWS V13.01,2013-10-31 08:05:00,
2013-10-31 03:10:00,72.5,71.3,29.88,South,191,5.8,5.8,96,0.00,,SKC,0.00,VWS V13.01,2013-10-31 08:10:00,
2013-10-31 03:15:00,72.5,71.3,29.85,SSE,164,4.0,4.0,96,0.00,,SKC,0.00,VWS V13.01,2013-10-31 08:15:00,
2013-10-31 03:20:00,72.5,70.7,29.85,South,176,2.7,6.3,94,0.00,,SKC,0.00,VWS V13.01,2013-10-31 08:20:00,
2013-10-31 03:25:00,72.5,70.7,29.85,South,186,7.6,8.1,94,0.00,,SKC,0.00,VWS V13.01,2013-10-31 08:25:00,
2013-10-31 03:30:00,72.5,70.7,29.85,SSE,167,8.3,8.3,94,0.00,,SKC,0.00,VWS V13.01,2013-10-31 08:30:00,
2013-10-31 03:35:00,72.7,70.9,29.85,SSE,155,5.4,6.3,94,0.00,,SKC,0.00,VWS V13.01,2013-10-31 08:35:00,
2013-10-31 03:40:00,72.7,71.5,29.85,SSE,164,8.3,8.3,96,0.00,,SKC,0.00,VWS V13.01,2013-10-31 08:40:00,
2013-10-31 03:45:00,72.7,71.5,29.85,SSW,204,5.8,6.3,96,0.00,,SKC,0.00,VWS V13.01,2013-10-31 08:45:00,
2013-10-31 03:50:00,72.7,71.5,29.85,SE,145,5.8,8.7,96,0.00,,SKC,0.00,VWS V13.01,2013-10-31 08:50:00,
2013-10-31 03:55:00,72.7,71.5,29.85,South,185,4.9,7.6,96,0.00,,SKC,0.00,VWS V13.01,2013-10-31 08:55:00,
2013-10-31 04:00:00,72.9,71.7,29.85,South,176,2.7,8.1,96,0.00,,SKC,0.00,VWS V13.01,2013-10-31 09:00:00,
2013-10-31 04:05:00,72.9,71.7,29.85,South,169,10.1,10.1,96,0.00,,SKC,0.00,VWS V13.01,2013-10-31 09:05:00,
2013-10-31 04:10:00,72.9,71.7,29.85,SSW,193,3.1,5.8,96,0.00,,SKC,0.00,VWS V13.01,2013-10-31 09:10:00,
2013-10-31 04:15:00,72.9,71.7,29.85,South,185,3.6,8.1,96,0.00,,SKC,0.00,VWS V13.01,2013-10-31 09:15:00,
2013-10-31 04:20:00,72.9,71.7,29.85,South,188,5.8,10.5,96,0.00,,SKC,0.00,VWS V13.01,2013-10-31 09:20:00,
2013-10-31 04:25:00,73.0,71.8,29.85,South,186,6.3,6.7,96,0.00,,SKC,0.00,VWS V13.01,2013-10-31 09:25:00,
2013-10-31 04:30:00,73.0,71.8,29.85,SSE,168,6.3,6.3,96,0.00,,SKC,0.00,VWS V13.01,2013-10-31 09:30:00,
2013-10-31 04:35:00,73.2,72.0,29.85,South,184,8.3,8.3,96,0.00,,SKC,0.00,VWS V13.01,2013-10-31 09:35:00,
2013-10-31 04:40:00,73.2,71.4,29.85,SSW,199,3.6,3.6,94,0.00,,SKC,0.00,VWS V13.01,2013-10-31 09:40:00,
2013-10-31 04:45:00,73.2,71.4,29.83,SSW,195,5.4,5.8,94,0.00,,SKC,0.00,VWS V13.01,2013-10-31 09:45:00,
2013-10-31 04:50:00,73.2,70.8,29.83,South,190,5.8,6.3,92,0.00,,SKC,0.00,VWS V13.01,2013-10-31 09:50:00,
2013-10-31 04:55:00,73.2,70.8,29.83,SSW,203,5.8,7.2,92,0.00,,SKC,0.00,VWS V13.01,2013-10-31 09:55:00,
2013-10-31 05:00:00,73.2,70.8,29.83,South,174,0.0,4.0,92,0.00,,SKC,0.00,VWS V13.01,2013-10-31 10:00:00,
2013-10-31 05:05:00,73.2,70.8,29.83,SSE,152,7.6,7.6,92,0.00,,SKC,0.00,VWS V13.01,2013-10-31 10:05:00,
2013-10-31 05:10:00,73.2,70.1,29.83,South,183,4.9,8.1,90,0.00,,SKC,0.00,VWS V13.01,2013-10-31 10:10:00,
2013-10-31 05:15:00,73.2,70.1,29.83,SSE,158,2.7,3.1,90,0.00,,SKC,0.00,VWS V13.01,2013-10-31 10:15:00,
2013-10-31 05:20:00,73.2,69.5,29.83,SSE,165,4.0,6.3,88,0.00,,SKC,0.00,VWS V13.01,2013-10-31 10:20:00,
2013-10-31 05:25:00,73.2,69.5,29.83,SSE,165,8.1,8.1,88,0.00,,SKC,0.00,VWS V13.01,2013-10-31 10:25:00,
2013-10-31 05:30:00,73.0,69.3,29.83,South,175,6.3,7.6,88,0.00,,SKC,0.00,VWS V13.01,2013-10-31 10:30:00,
2013-10-31 05:35:00,73.0,69.3,29.83,South,171,5.4,7.6,88,0.00,,SKC,0.00,VWS V13.01,2013-10-31 10:35:00,
2013-10-31 05:40:00,73.0,69.3,29.83,South,179,3.6,3.6,88,0.00,,SKC,0.00,VWS V13.01,2013-10-31 10:40:00,
2013-10-31 05:45:00,73.0,69.3,29.83,South,177,5.4,7.6,88,0.00,,SKC,0.00,VWS V13.01,2013-10-31 10:45:00,
2013-10-31 05:50:00,73.2,69.5,29.83,SSE,160,7.6,8.3,88,0.00,,SKC,0.00,VWS V13.01,2013-10-31 10:50:00,
2013-10-31 05:55:00,73.2,69.5,29.83,South,187,6.3,6.3,88,0.00,,SKC,0.00,VWS V13.01,2013-10-31 10:55:00,
2013-10-31 06:00:00,73.2,69.5,29.83,SE,136,6.3,6.3,88,0.00,,SKC,0.00,VWS V13.01,2013-10-31 11:00:00,
2013-10-31 06:05:00,73.2,68.8,29.83,South,174,7.6,7.6,86,0.00,,SKC,0.00,VWS V13.01,2013-10-31 11:05:00,
2013-10-31 06:10:00,73.2,68.8,29.83,SSW,193,6.3,7.2,86,0.00,,SKC,0.00,VWS V13.01,2013-10-31 11:10:00,
2013-10-31 06:15:00,73.0,68.6,29.83,SSW,195,5.4,5.8,86,0.00,,SKC,0.00,VWS V13.01,2013-10-31 11:15:00,
2013-10-31 06:20:00,73.0,69.3,29.83,SSW,192,4.9,4.9,88,0.00,,SKC,0.00,VWS V13.01,2013-10-31 11:20:00,
2013-10-31 06:25:00,73.0,69.9,29.83,South,177,4.9,8.3,90,0.00,,SKC,0.00,VWS V13.01,2013-10-31 11:25:00,
2013-10-31 06:30:00,73.2,70.1,29.83,SSE,163,9.6,9.6,90,0.00,,SKC,0.00,VWS V13.01,2013-10-31 11:30:00,
2013-10-31 06:35:00,73.2,70.8,29.83,SW,227,0.0,2.7,92,0.00,,SKC,0.00,VWS V13.01,2013-10-31 11:35:00,
2013-10-31 06:40:00,73.4,70.9,29.83,South,179,7.6,7.6,92,0.00,,SKC,0.00,VWS V13.01,2013-10-31 11:40:00,
2013-10-31 06:44:00,73.4,70.9,29.83,South,173,5.4,5.4,92,0.00,,SKC,0.00,VWS V13.01,2013-10-31 11:44:00,
2013-10-31 06:49:00,73.4,70.9,29.83,South,177,3.1,3.1,92,0.00,,SKC,0.00,VWS V13.01,2013-10-31 11:49:00,
2013-10-31 06:54:00,73.6,71.1,29.83,SSW,193,7.6,7.6,92,0.00,,SKC,0.00,VWS V13.01,2013-10-31 11:54:00,
2013-10-31 06:59:00,73.6,71.1,29.83,SSW,196,5.8,8.1,92,0.00,,SKC,0.00,VWS V13.01,2013-10-31 11:59:00,
2013-10-31 07:04:00,73.6,71.1,29.83,SSW,211,5.8,7.2,92,0.00,,SKC,0.00,VWS V13.01,2013-10-31 12:04:00,
2013-10-31 07:09:00,73.8,70.7,29.83,South,173,4.0,5.8,90,0.00,,SKC,0.00,VWS V13.01,2013-10-31 12:09:00,
2013-10-31 07:14:00,73.8,70.0,29.83,South,170,8.1,8.1,88,0.00,,SKC,0.00,VWS V13.01,2013-10-31 12:14:00,
2013-10-31 07:19:00,73.8,70.0,29.83,South,185,9.2,9.2,88,0.00,,SKC,0.00,VWS V13.01,2013-10-31 12:19:00,
2013-10-31 07:24:00,73.8,69.3,29.83,South,172,5.8,5.8,86,0.00,,SKC,0.00,VWS V13.01,2013-10-31 12:24:00,
2013-10-31 07:29:00,73.9,69.5,29.83,South,178,6.3,8.1,86,0.00,,SKC,0.00,VWS V13.01,2013-10-31 12:29:00,
2013-10-31 07:34:00,73.9,68.8,29.83,South,180,11.0,11.0,84,0.00,,SKC,0.00,VWS V13.01,2013-10-31 12:34:00,
2013-10-31 07:39:00,73.9,68.1,29.83,SW,218,5.8,8.3,82,0.00,,SKC,0.00,VWS V13.01,2013-10-31 12:39:00,
2013-10-31 07:44:00,73.9,67.4,29.83,SSW,193,5.8,5.8,80,0.00,,SKC,0.00,VWS V13.01,2013-10-31 12:44:00,
2013-10-31 07:49:00,74.1,67.6,29.83,SSW,205,8.7,8.7,80,0.00,,SKC,0.00,VWS V13.01,2013-10-31 12:49:00,
2013-10-31 07:54:00,74.1,66.8,29.83,SSE,165,8.1,8.1,78,0.00,,SKC,0.00,VWS V13.01,2013-10-31 12:54:00,
2013-10-31 07:59:00,74.1,66.8,29.83,SW,216,7.6,8.7,78,0.00,,SKC,0.00,VWS V13.01,2013-10-31 12:59:00,
2013-10-31 08:04:00,74.1,66.1,29.83,SSE,163,3.1,4.0,76,0.00,,SKC,0.00,VWS V13.01,2013-10-31 13:04:00,
2013-10-31 08:09:00,74.3,66.2,29.83,SSW,202,5.4,5.4,76,0.00,,SKC,0.00,VWS V13.01,2013-10-31 13:09:00,
2013-10-31 08:14:00,74.3,65.5,29.83,South,169,3.6,8.3,74,0.00,,SKC,0.00,VWS V13.01,2013-10-31 13:14:00,
2013-10-31 08:19:00,74.5,65.7,29.83,South,185,6.3,6.3,74,0.00,,SKC,0.00,VWS V13.01,2013-10-31 13:19:00,
2013-10-31 08:24:00,74.7,65.8,29.83,SW,215,2.7,2.7,74,0.00,,SKC,0.00,VWS V13.01,2013-10-31 13:24:00,
2013-10-31 08:29:00,74.8,65.2,29.83,SSE,150,4.0,5.4,72,0.00,,SKC,0.00,VWS V13.01,2013-10-31 13:29:00,
2013-10-31 08:34:00,75.0,65.4,29.83,South,184,6.3,6.3,72,0.00,,SKC,0.00,VWS V13.01,2013-10-31 13:34:00,
2013-10-31 08:39:00,75.2,64.8,29.83,SE,141,6.3,8.7,70,0.00,,SKC,0.00,VWS V13.01,2013-10-31 13:39:00,
2013-10-31 08:44:00,75.4,64.1,29.83,SSE,155,10.5,10.5,68,0.00,,SKC,0.00,VWS V13.01,2013-10-31 13:44:00,
2013-10-31 08:49:00,75.6,64.3,29.83,SSE,148,5.4,8.1,68,0.00,,SKC,0.00,VWS V13.01,2013-10-31 13:49:00,
2013-10-31 08:54:00,75.6,63.4,29.83,South,191,8.7,8.7,66,0.00,,SKC,0.00,VWS V13.01,2013-10-31 13:54:00,
2013-10-31 08:59:00,75.7,62.7,29.83,South,176,5.8,5.8,64,0.00,,SKC,0.00,VWS V13.01,2013-10-31 13:59:00,
2013-10-31 09:04:00,76.3,63.2,29.83,SSW,193,7.6,7.6,64,0.00,,SKC,0.00,VWS V13.01,2013-10-31 14:04:00,
2013-10-31 09:09:00,77.2,63.2,29.83,SSE,148,4.9,6.3,62,0.00,,SKC,0.00,VWS V13.01,2013-10-31 14:09:00,
2013-10-31 09:14:00,78.1,63.1,29.85,SSW,198,3.6,11.0,60,0.00,,SKC,0.00,VWS V13.01,2013-10-31 14:14:00,
2013-10-31 09:19:00,79.0,60.9,29.85,North,5,5.8,5.8,54,0.00,,SKC,0.00,VWS V13.01,2013-10-31 14:19:00,
2013-10-31 09:24:00,79.7,57.1,29.85,South,188,11.0,11.0,46,0.00,,SKC,0.00,VWS V13.01,2013-10-31 14:24:00,
2013-10-31 09:29:00,79.7,57.1,29.85,South,178,3.1,6.3,46,0.00,,SKC,0.00,VWS V13.01,2013-10-31 14:29:00,
2013-10-31 09:34:00,79.3,56.8,29.85,SSE,168,6.3,6.3,46,0.00,,SKC,0.00,VWS V13.01,2013-10-31 14:34:00,
2013-10-31 09:39:00,79.2,57.8,29.85,SSW,212,3.1,5.8,48,0.00,,SKC,0.00,VWS V13.01,2013-10-31 14:39:00,
2013-10-31 09:44:00,78.8,56.3,29.85,SSW,201,5.4,8.7,46,0.00,,SKC,0.00,VWS V13.01,2013-10-31 14:44:00,
2013-10-31 09:49:00,79.0,57.6,29.85,SSW,193,6.7,8.7,48,0.00,,SKC,0.00,VWS V13.01,2013-10-31 14:49:00,
2013-10-31 09:54:00,79.5,59.3,29.85,South,172,3.1,6.3,50,0.00,,SKC,0.00,VWS V13.01,2013-10-31 14:54:00,
2013-10-31 09:59:00,80.2,57.6,29.85,SW,218,6.7,10.1,46,0.00,,SKC,0.00,VWS V13.01,2013-10-31 14:59:00,
2013-10-31 10:04:00,80.8,56.9,29.85,SSW,194,3.1,5.4,44,0.00,,SKC,0.00,VWS V13.01,2013-10-31 15:04:00,
2013-10-31 10:09:00,81.1,55.9,29.85,WSW,246,5.8,5.8,42,0.00,,SKC,0.00,VWS V13.01,2013-10-31 15:09:00,
2013-10-31 10:14:00,81.1,55.9,29.83,SW,225,4.9,5.4,42,0.00,,SKC,0.00,VWS V13.01,2013-10-31 15:14:00,
2013-10-31 10:19:00,81.0,55.7,29.83,WSW,254,3.1,6.3,42,0.00,,SKC,0.00,VWS V13.01,2013-10-31 15:19:00,
2013-10-31 10:24:00,81.3,57.3,29.83,WSW,252,0.0,6.3,44,0.00,,SKC,0.00,VWS V13.01,2013-10-31 15:24:00,
2013-10-31 10:29:00,81.5,56.2,29.83,South,179,2.2,7.6,42,0.00,,SKC,0.00,VWS V13.01,2013-10-31 15:29:00,
2013-10-31 10:34:00,81.3,56.1,29.83,South,171,2.7,5.8,42,0.00,,SKC,0.00,VWS V13.01,2013-10-31 15:34:00,
2013-10-31 10:39:00,81.1,55.9,29.83,ESE,123,3.1,7.6,42,0.00,,SKC,0.00,VWS V13.01,2013-10-31 15:39:00,
2013-10-31 10:44:00,81.0,55.7,29.83,SSW,212,5.4,5.8,42,0.00,,SKC,0.00,VWS V13.01,2013-10-31 15:44:00,
2013-10-31 10:49:00,80.8,55.6,29.83,SSW,210,7.6,8.1,42,0.00,,SKC,0.00,VWS V13.01,2013-10-31 15:49:00,
2013-10-31 10:54:00,81.0,55.7,29.83,South,182,5.4,5.4,42,0.00,,SKC,0.00,VWS V13.01,2013-10-31 15:54:00,
2013-10-31 10:59:00,80.8,55.6,29.83,SSE,149,2.2,2.2,42,0.00,,SKC,0.00,VWS V13.01,2013-10-31 15:59:00,
2013-10-31 11:04:00,80.6,55.4,29.83,SSE,161,4.9,4.9,42,0.00,,SKC,0.00,VWS V13.01,2013-10-31 16:04:00,
2013-10-31 11:09:00,80.6,56.7,29.83,South,172,4.0,4.0,44,0.00,,SKC,0.00,VWS V13.01,2013-10-31 16:09:00,
2013-10-31 11:14:00,80.4,56.5,29.83,SSW,204,6.3,9.2,44,0.00,,SKC,0.00,VWS V13.01,2013-10-31 16:14:00,
2013-10-31 11:19:00,80.2,56.4,29.83,South,191,5.8,5.8,44,0.00,,SKC,0.00,VWS V13.01,2013-10-31 16:19:00,
2013-10-31 11:24:00,80.4,56.5,29.83,South,177,8.3,8.7,44,0.00,,SKC,0.00,VWS V13.01,2013-10-31 16:24:00,
2013-10-31 11:29:00,80.6,56.7,29.83,South,175,4.0,4.0,44,0.00,,SKC,0.00,VWS V13.01,2013-10-31 16:29:00,
2013-10-31 11:34:00,80.6,55.4,29.83,South,170,4.5,7.2,42,0.00,,SKC,0.00,VWS V13.01,2013-10-31 16:34:00,
2013-10-31 11:39:00,80.4,56.5,29.83,South,191,2.7,4.0,44,0.00,,SKC,0.00,VWS V13.01,2013-10-31 16:39:00,
2013-10-31 11:44:00,80.4,56.5,29.83,South,183,6.3,6.3,44,0.00,,SKC,0.00,VWS V13.01,2013-10-31 16:44:00,
2013-10-31 11:49:00,80.4,56.5,29.83,South,181,3.1,6.3,44,0.00,,SKC,0.00,VWS V13.01,2013-10-31 16:49:00,
2013-10-31 11:54:00,80.6,55.4,29.83,South,184,3.6,3.6,42,0.00,,SKC,0.00,VWS V13.01,2013-10-31 16:54:00,
2013-10-31 11:59:00,80.6,55.4,29.83,WNW,293,5.4,5.4,42,0.00,,SKC,0.00,VWS V13.01,2013-10-31 16:59:00,
2013-10-31 12:04:00,80.6,55.4,29.83,SSE,156,3.1,5.4,42,0.00,,SKC,0.00,VWS V13.01,2013-10-31 17:04:00,
2013-10-31 12:09:00,80.8,55.6,29.83,SW,223,5.8,5.8,42,0.00,,SKC,0.00,VWS V13.01,2013-10-31 17:09:00,
2013-10-31 12:14:00,80.8,55.6,29.83,SSW,201,4.0,4.0,42,0.00,,SKC,0.00,VWS V13.01,2013-10-31 17:14:00,
2013-10-31 12:19:00,80.6,55.4,29.83,SSW,193,3.1,4.9,42,0.00,,SKC,0.00,VWS V13.01,2013-10-31 17:19:00,
2013-10-31 12:24:00,80.6,55.4,29.83,South,173,0.0,2.2,42,0.00,,SKC,0.00,VWS V13.01,2013-10-31 17:24:00,
2013-10-31 12:29:00,80.8,55.6,29.83,SSE,165,3.6,4.0,42,0.00,,SKC,0.00,VWS V13.01,2013-10-31 17:29:00,
2013-10-31 12:34:00,81.0,55.7,29.83,SSE,165,3.6,3.6,42,0.00,,SKC,0.00,VWS V13.01,2013-10-31 17:34:00,
2013-10-31 12:39:00,80.8,55.6,29.83,SSW,195,2.7,2.7,42,0.00,,SKC,0.00,VWS V13.01,2013-10-31 17:39:00,
2013-10-31 12:44:00,80.8,55.6,29.80,WSW,238,2.2,5.8,42,0.00,,SKC,0.00,VWS V13.01,2013-10-31 17:44:00,
2013-10-31 12:49:00,80.8,55.6,29.80,WSW,243,2.7,3.1,42,0.00,,SKC,0.00,VWS V13.01,2013-10-31 17:49:00,
2013-10-31 12:54:00,80.6,55.4,29.80,SE,136,0.0,4.0,42,0.00,,SKC,0.00,VWS V13.01,2013-10-31 17:54:00,
2013-10-31 12:59:00,80.8,55.6,29.80,SSE,164,4.0,5.8,42,0.00,,SKC,0.00,VWS V13.01,2013-10-31 17:59:00,
2013-10-31 13:03:00,81.0,55.7,29.80,SSW,209,4.9,7.6,42,0.00,,SKC,0.00,VWS V13.01,2013-10-31 18:03:00,
2013-10-31 13:08:00,81.1,55.9,29.80,SSW,197,0.0,3.6,42,0.00,,SKC,0.00,VWS V13.01,2013-10-31 18:08:00,
2013-10-31 13:13:00,81.1,55.9,29.80,SSE,157,4.9,5.8,42,0.00,,SKC,0.00,VWS V13.01,2013-10-31 18:13:00,
2013-10-31 13:18:00,81.1,55.9,29.80,SSW,200,6.3,6.3,42,0.00,,SKC,0.00,VWS V13.01,2013-10-31 18:18:00,
2013-10-31 13:23:00,81.0,55.7,29.80,South,184,3.6,3.6,42,0.00,,SKC,0.00,VWS V13.01,2013-10-31 18:23:00,
2013-10-31 13:28:00,81.0,55.7,29.80,South,171,3.1,3.6,42,0.00,,SKC,0.00,VWS V13.01,2013-10-31 18:28:00,
2013-10-31 13:33:00,81.0,55.7,29.80,WSW,258,2.7,3.6,42,0.00,,SKC,0.00,VWS V13.01,2013-10-31 18:33:00,
2013-10-31 13:38:00,81.1,55.9,29.80,SW,223,5.8,10.1,42,0.00,,SKC,0.00,VWS V13.01,2013-10-31 18:38:00,
2013-10-31 13:43:00,81.1,55.9,29.77,SSW,201,5.4,5.4,42,0.00,,SKC,0.00,VWS V13.01,2013-10-31 18:43:00,
2013-10-31 13:48:00,81.1,55.9,29.77,South,169,4.0,6.3,42,0.00,,SKC,0.00,VWS V13.01,2013-10-31 18:48:00,
2013-10-31 13:53:00,81.1,55.9,29.77,SSE,163,3.1,3.1,42,0.00,,SKC,0.00,VWS V13.01,2013-10-31 18:53:00,
2013-10-31 13:58:00,81.1,55.9,29.77,South,178,4.9,5.8,42,0.00,,SKC,0.00,VWS V13.01,2013-10-31 18:58:00,
2013-10-31 14:03:00,81.1,55.9,29.77,South,182,3.1,3.6,42,0.00,,SKC,0.00,VWS V13.01,2013-10-31 19:03:00,
2013-10-31 14:08:00,81.3,56.1,29.77,ESE,103,3.6,3.6,42,0.00,,SKC,0.00,VWS V13.01,2013-10-31 19:08:00,
2013-10-31 14:13:00,81.5,56.2,29.77,SW,228,3.6,3.6,42,0.00,,SKC,0.00,VWS V13.01,2013-10-31 19:13:00,
2013-10-31 14:18:00,81.9,56.5,29.77,SW,224,5.8,6.3,42,0.00,,SKC,0.00,VWS V13.01,2013-10-31 19:18:00,
2013-10-31 14:23:00,82.6,55.8,29.77,SSE,167,3.1,3.1,40,0.00,,SKC,0.00,VWS V13.01,2013-10-31 19:23:00,
2013-10-31 14:28:00,82.8,56.0,29.77,SW,235,3.6,3.6,40,0.00,,SKC,0.00,VWS V13.01,2013-10-31 19:28:00,
2013-10-31 14:33:00,82.8,56.0,29.77,South,175,4.9,6.3,40,0.00,,SKC,0.00,VWS V13.01,2013-10-31 19:33:00,
2013-10-31 14:38:00,82.4,55.7,29.77,South,182,5.8,5.8,40,0.00,,SKC,0.00,VWS V13.01,2013-10-31 19:38:00,
2013-10-31 14:43:00,82.2,55.5,29.74,South,174,7.6,7.6,40,0.00,,SKC,0.00,VWS V13.01,2013-10-31 19:43:00,
2013-10-31 14:48:00,82.4,55.7,29.74,South,176,3.6,3.6,40,0.00,,SKC,0.00,VWS V13.01,2013-10-31 19:48:00,
2013-10-31 14:53:00,82.6,55.8,29.74,SSW,209,2.7,6.3,40,0.00,,SKC,0.00,VWS V13.01,2013-10-31 19:53:00,
2013-10-31 14:58:00,82.8,54.6,29.74,WSW,245,5.4,5.4,38,0.00,,SKC,0.00,VWS V13.01,2013-10-31 19:58:00,
2013-10-31 15:03:00,82.8,54.6,29.74,SSW,193,3.1,6.3,38,0.00,,SKC,0.00,VWS V13.01,2013-10-31 20:03:00,
2013-10-31 15:08:00,82.9,56.2,29.74,SSW,195,8.3,8.3,40,0.00,,SKC,0.00,VWS V13.01,2013-10-31 20:08:00,
2013-10-31 15:13:00,83.3,53.6,29.74,SSW,204,5.8,8.3,36,0.00,,SKC,0.00,VWS V13.01,2013-10-31 20:13:00,
2013-10-31 15:18:00,83.7,52.3,29.74,South,178,2.7,8.3,34,0.00,,SKC,0.00,VWS V13.01,2013-10-31 20:18:00,
2013-10-31 15:23:00,83.5,52.2,29.74,South,173,7.6,10.5,34,0.00,,SKC,0.00,VWS V13.01,2013-10-31 20:23:00,
2013-10-31 15:28:00,83.1,51.9,29.74,SSE,168,8.1,8.1,34,0.00,,SKC,0.00,VWS V13.01,2013-10-31 20:28:00,
2013-10-31 15:33:00,82.8,51.6,29.74,South,181,2.7,8.7,34,0.00,,SKC,0.00,VWS V13.01,2013-10-31 20:33:00,
2013-10-31 15:38:00,82.4,54.3,29.74,South,185,4.0,8.1,38,0.00,,SKC,0.00,VWS V13.01,2013-10-31 20:38:00,
2013-10-31 15:43:00,82.4,55.7,29.74,SSW,195,3.1,12.3,40,0.00,,SKC,0.00,VWS V13.01,2013-10-31 20:43:00,
2013-10-31 15:48:00,82.2,55.5,29.74,SSW,192,8.1,8.1,40,0.00,,SKC,0.00,VWS V13.01,2013-10-31 20:48:00,
2013-10-31 15:53:00,81.9,55.2,29.74,South,189,3.6,11.9,40,0.00,,SKC,0.00,VWS V13.01,2013-10-31 20:53:00,
2013-10-31 15:58:00,81.3,54.7,29.74,SW,214,5.8,6.3,40,0.00,,SKC,0.00,VWS V13.01,2013-10-31 20:58:00,
2013-10-31 16:03:00,81.0,55.7,29.74,SSW,209,8.3,8.3,42,0.00,,SKC,0.00,VWS V13.01,2013-10-31 21:03:00,
2013-10-31 16:08:00,80.4,55.2,29.74,South,191,4.9,5.8,42,0.00,,SKC,0.00,VWS V13.01,2013-10-31 21:08:00,
2013-10-31 16:13:00,80.2,56.4,29.74,South,186,5.4,5.4,44,0.00,,SKC,0.00,VWS V13.01,2013-10-31 21:13:00,
2013-10-31 16:18:00,80.1,56.2,29.74,South,173,6.3,6.7,44,0.00,,SKC,0.00,VWS V13.01,2013-10-31 21:18:00,
2013-10-31 16:23:00,80.1,56.2,29.74,South,174,5.8,5.8,44,0.00,,SKC,0.00,VWS V13.01,2013-10-31 21:23:00,
2013-10-31 16:28:00,80.1,56.2,29.74,South,169,3.1,7.6,44,0.00,,SKC,0.00,VWS V13.01,2013-10-31 21:28:00,
2013-10-31 16:33:00,79.9,56.0,29.74,SSW,211,3.6,5.4,44,0.00,,SKC,0.00,VWS V13.01,2013-10-31 21:33:00,
2013-10-31 16:38:00,79.7,57.1,29.74,SSE,161,5.8,8.3,46,0.00,,SKC,0.00,VWS V13.01,2013-10-31 21:38:00,
2013-10-31 16:43:00,79.5,57.0,29.74,South,183,4.0,10.5,46,0.00,,SKC,0.00,VWS V13.01,2013-10-31 21:43:00,
2013-10-31 16:48:00,79.5,57.0,29.74,West,276,4.9,5.4,46,0.00,,SKC,0.00,VWS V13.01,2013-10-31 21:48:00,
2013-10-31 16:53:00,79.2,56.6,29.74,SSE,165,6.3,6.3,46,0.00,,SKC,0.00,VWS V13.01,2013-10-31 21:53:00,
2013-10-31 16:58:00,78.8,57.5,29.71,South,172,3.6,6.3,48,0.00,,SKC,0.00,VWS V13.01,2013-10-31 21:58:00,
2013-10-31 17:03:00,78.6,57.3,29.71,South,170,5.8,5.8,48,0.00,,SKC,0.00,VWS V13.01,2013-10-31 22:03:00,
2013-10-31 17:08:00,78.4,58.3,29.71,South,177,4.0,6.3,50,0.00,,SKC,0.00,VWS V13.01,2013-10-31 22:08:00,
2013-10-31 17:13:00,78.3,58.1,29.71,South,189,3.1,3.1,50,0.00,,SKC,0.00,VWS V13.01,2013-10-31 22:13:00,
2013-10-31 17:18:00,78.3,58.1,29.71,South,184,0.0,2.7,50,0.00,,SKC,0.00,VWS V13.01,2013-10-31 22:18:00,
2013-10-31 17:23:00,77.9,58.9,29.71,South,180,8.3,8.3,52,0.00,,SKC,0.00,VWS V13.01,2013-10-31 22:23:00,
2013-10-31 17:28:00,77.7,58.7,29.71,South,170,8.1,8.1,52,0.00,,SKC,0.00,VWS V13.01,2013-10-31 22:28:00,
2013-10-31 17:33:00,77.5,59.6,29.71,SSW,206,2.7,3.6,54,0.00,,SKC,0.00,VWS V13.01,2013-10-31 22:33:00,
2013-10-31 17:38:00,77.4,59.4,29.71,SSW,198,3.1,4.0,54,0.00,,SKC,0.00,VWS V13.01,2013-10-31 22:38:00,
2013-10-31 17:43:00,77.4,60.5,29.71,South,177,4.0,4.9,56,0.00,,SKC,0.00,VWS V13.01,2013-10-31 22:43:00,
2013-10-31 17:48:00,77.2,60.3,29.71,South,174,2.2,2.2,56,0.00,,SKC,0.00,VWS V13.01,2013-10-31 22:48:00,
2013-10-31 17:53:00,77.0,61.1,29.71,South,172,4.9,5.8,58,0.00,,SKC,0.00,VWS V13.01,2013-10-31 22:53:00,
2013-10-31 17:58:00,76.8,61.9,29.71,South,173,4.9,5.8,60,0.00,,SKC,0.00,VWS V13.01,2013-10-31 22:58:00,
2013-10-31 18:03:00,76.6,62.7,29.71,SSE,164,3.1,3.1,62,0.00,,SKC,0.00,VWS V13.01,2013-10-31 23:03:00,
2013-10-31 18:08:00,76.6,62.7,29.71,South,185,7.2,7.2,62,0.00,,SKC,0.00,VWS V13.01,2013-10-31 23:08:00,
2013-10-31 18:13:00,76.5,63.4,29.71,SSE,164,3.6,6.3,64,0.00,,SKC,0.00,VWS V13.01,2013-10-31 23:13:00,
2013-10-31 18:18:00,76.3,63.2,29.71,SW,234,4.9,5.4,64,0.00,,SKC,0.00,VWS V13.01,2013-10-31 23:18:00,
2013-10-31 18:23:00,76.3,64.1,29.71,WSW,251,0.0,4.9,66,0.00,,SKC,0.00,VWS V13.01,2013-10-31 23:23:00,
2013-10-31 18:28:00,76.1,63.9,29.71,South,175,2.7,3.6,66,0.00,,SKC,0.00,VWS V13.01,2013-10-31 23:28:00,
2013-10-31 18:33:00,76.1,63.9,29.71,SW,214,2.2,3.1,66,0.00,,SKC,0.00,VWS V13.01,2013-10-31 23:33:00,
2013-10-31 18:38:00,76.1,64.8,29.71,WSW,242,3.6,3.6,68,0.00,,SKC,0.00,VWS V13.01,2013-10-31 23:38:00,
2013-10-31 18:43:00,76.1,64.8,29.74,South,191,2.7,6.3,68,0.00,,SKC,0.00,VWS V13.01,2013-10-31 23:43:00,
2013-10-31 18:48:00,75.9,64.6,29.74,SSW,193,2.2,3.6,68,0.00,,SKC,0.00,VWS V13.01,2013-10-31 23:48:00,
2013-10-31 18:53:00,75.9,65.4,29.74,West,262,2.7,6.3,70,0.00,,SKC,0.00,VWS V13.01,2013-10-31 23:53:00,
2013-10-31 18:58:00,75.9,65.4,29.71,South,178,4.0,4.0,70,0.00,,SKC,0.00,VWS V13.01,2013-10-31 23:58:00,
2013-10-31 19:03:00,75.9,65.4,29.71,South,182,4.0,5.4,70,0.00,,SKC,0.00,VWS V13.01,2013-11-01 00:03:00,
2013-10-31 19:08:00,75.7,65.3,29.71,SE,146,2.7,5.4,70,0.00,,SKC,0.00,VWS V13.01,2013-11-01 00:08:00,
2013-10-31 19:13:00,75.7,65.3,29.74,South,173,3.6,4.5,70,0.00,,SKC,0.00,VWS V13.01,2013-11-01 00:13:00,
2013-10-31 19:18:00,75.7,66.1,29.74,SSW,192,0.0,2.2,72,0.00,,SKC,0.00,VWS V13.01,2013-11-01 00:18:00,
2013-10-31 19:23:00,75.7,66.1,29.74,SSW,202,2.7,5.4,72,0.00,,SKC,0.00,VWS V13.01,2013-11-01 00:23:00,
2013-10-31 19:28:00,75.7,66.1,29.74,SSW,206,3.6,5.4,72,0.00,,SKC,0.00,VWS V13.01,2013-11-01 00:28:00,
2013-10-31 19:33:00,75.6,65.9,29.74,SW,226,3.6,3.6,72,0.00,,SKC,0.00,VWS V13.01,2013-11-01 00:33:00,
2013-10-31 19:38:00,75.6,65.9,29.74,SSE,160,3.6,5.4,72,0.00,,SKC,0.00,VWS V13.01,2013-11-01 00:38:00,
2013-10-31 19:43:00,75.6,65.9,29.74,SW,228,4.9,5.4,72,0.00,,SKC,0.00,VWS V13.01,2013-11-01 00:43:00,
2013-10-31 19:48:00,75.6,66.7,29.74,South,190,3.1,4.9,74,0.00,,SKC,0.00,VWS V13.01,2013-11-01 00:48:00,
2013-10-31 19:53:00,75.6,66.7,29.74,SW,227,2.7,4.0,74,0.00,,SKC,0.00,VWS V13.01,2013-11-01 00:53:00,
2013-10-31 19:58:00,75.7,66.9,29.74,WSW,252,4.9,4.9,74,0.00,,SKC,0.00,VWS V13.01,2013-11-01 00:58:00,
2013-10-31 20:03:00,75.7,66.9,29.74,WSW,254,2.2,3.1,74,0.00,,SKC,0.00,VWS V13.01,2013-11-01 01:03:00,
2013-10-31 20:08:00,75.7,66.9,29.74,WSW,239,3.1,7.6,74,0.00,,SKC,0.00,VWS V13.01,2013-11-01 01:08:00,
2013-10-31 20:13:00,75.7,66.9,29.74,SSW,211,3.6,6.3,74,0.00,,SKC,0.00,VWS V13.01,2013-11-01 01:13:00,
2013-10-31 20:18:00,75.7,66.9,29.74,SSE,167,3.1,8.1,74,0.00,,SKC,0.00,VWS V13.01,2013-11-01 01:18:00,
2013-10-31 20:23:00,75.7,66.9,29.74,WSW,245,3.1,3.1,74,0.00,,SKC,0.00,VWS V13.01,2013-11-01 01:23:00,
2013-10-31 20:28:00,75.6,67.5,29.74,WSW,237,2.7,2.7,76,0.00,,SKC,0.00,VWS V13.01,2013-11-01 01:28:00,
2013-10-31 20:33:00,75.6,67.5,29.74,SW,229,3.1,4.0,76,0.00,,SKC,0.00,VWS V13.01,2013-11-01 01:33:00,
2013-10-31 20:38:00,75.6,67.5,29.74,WSW,249,0.0,2.2,76,0.00,,SKC,0.00,VWS V13.01,2013-11-01 01:38:00,
2013-10-31 20:43:00,75.6,67.5,29.74,West,260,0.0,0.0,76,0.00,,SKC,0.00,VWS V13.01,2013-11-01 01:43:00,
2013-10-31 20:48:00,75.6,68.2,29.74,South,191,2.2,4.9,78,0.00,,SKC,0.00,VWS V13.01,2013-11-01 01:48:00,
2013-10-31 20:53:00,75.6,68.2,29.74,South,179,2.7,2.7,78,0.00,,SKC,0.00,VWS V13.01,2013-11-01 01:53:00,
2013-10-31 20:58:00,75.4,68.1,29.74,SW,222,3.1,3.6,78,0.04,,SKC,0.04,VWS V13.01,2013-11-01 01:58:00,
2013-10-31 21:03:00,75.2,67.9,29.74,WNW,298,0.0,0.0,78,0.16,,SKC,0.16,VWS V13.01,2013-11-01 02:03:00,
2013-10-31 21:08:00,75.0,69.2,29.74,WNW,290,4.0,4.0,82,0.20,,SKC,0.20,VWS V13.01,2013-11-01 02:08:00,
2013-10-31 21:13:00,75.0,71.9,29.77,West,264,2.7,12.3,90,0.31,,SKC,0.31,VWS V13.01,2013-11-01 02:13:00,
2013-10-31 21:18:00,74.5,70.7,29.77,SSW,203,7.6,7.6,88,0.35,,SKC,0.35,VWS V13.01,2013-11-01 02:18:00,
2013-10-31 21:23:00,73.9,70.8,29.77,North,356,5.8,5.8,90,0.39,,SKC,0.39,VWS V13.01,2013-11-01 02:23:00,
2013-10-31 21:28:00,73.6,71.1,29.77,NNW,345,0.0,2.7,92,0.43,,SKC,0.43,VWS V13.01,2013-11-01 02:28:00,
2013-10-31 21:33:00,73.2,71.4,29.77,NW,306,0.0,2.7,94,0.43,,SKC,0.43,VWS V13.01,2013-11-01 02:33:00,
2013-10-31 21:38:00,72.9,71.7,29.77,NW,312,3.6,6.3,96,0.47,,SKC,0.47,VWS V13.01,2013-11-01 02:38:00,
2013-10-31 21:43:00,72.5,70.7,29.74,North,353,3.1,3.6,94,0.47,,SKC,0.47,VWS V13.01,2013-11-01 02:43:00,
2013-10-31 21:48:00,72.1,70.3,29.74,NW,324,5.4,6.3,94,0.47,,SKC,0.47,VWS V13.01,2013-11-01 02:48:00,
2013-10-31 21:53:00,72.0,70.8,29.74,NNW,334,0.0,3.6,96,0.47,,SKC,0.47,VWS V13.01,2013-11-01 02:53:00,
2013-10-31 21:58:00,72.0,70.8,29.74,North,356,0.0,0.0,96,0.47,,SKC,0.47,VWS V13.01,2013-11-01 02:58:00,
2013-10-31 22:03:00,71.8,70.0,29.74,NNW,332,3.1,4.5,94,0.39,,SKC,0.47,VWS V13.01,2013-11-01 03:03:00,
2013-10-31 22:08:00,71.6,70.4,29.74,NNW,332,0.0,0.0,96,0.35,,SKC,0.51,VWS V13.01,2013-11-01 03:08:00,
2013-10-31 22:13:00,71.8,71.2,29.71,South,173,0.0,2.2,98,0.20,,SKC,0.51,VWS V13.01,2013-11-01 03:13:00,
2013-10-31 22:18:00,71.8,70.6,29.71,SSE,163,0.0,0.0,96,0.16,,SKC,0.51,VWS V13.01,2013-11-01 03:18:00,
2013-10-31 22:23:00,71.8,70.6,29.71,South,169,2.7,3.1,96,0.12,,SKC,0.51,VWS V13.01,2013-11-01 03:23:00,
2013-10-31 22:28:00,71.8,71.2,29.71,South,181,0.0,3.1,98,0.08,,SKC,0.51,VWS V13.01,2013-11-01 03:28:00,
2013-10-31 22:33:00,71.8,70.6,29.71,SE,143,0.0,2.7,96,0.08,,SKC,0.51,VWS V13.01,2013-11-01 03:33:00,
2013-10-31 22:38:00,71.8,70.6,29.71,South,181,0.0,0.0,96,0.08,,SKC,0.51,VWS V13.01,2013-11-01 03:38:00,
2013-10-31 22:43:00,71.8,71.2,29.71,WSW,257,0.0,0.0,98,0.04,,SKC,0.51,VWS V13.01,2013-11-01 03:43:00,
2013-10-31 22:48:00,71.8,71.2,29.71,NNW,348,0.0,0.0,98,0.04,,SKC,0.51,VWS V13.01,2013-11-01 03:48:00,
2013-10-31 22:53:00,71.8,71.2,29.71,WSW,258,0.0,0.0,98,0.04,,SKC,0.51,VWS V13.01,2013-11-01 03:53:00,
2013-10-31 22:58:00,71.8,71.2,29.71,WSW,258,0.0,0.0,98,0.04,,SKC,0.51,VWS V13.01,2013-11-01 03:58:00,
2013-10-31 23:01:00,71.8,71.8,29.74,SSE,149,0.0,0.0,100,0.04,,SKC,0.51,VWS V13.01,2013-11-01 04:01:00,
2013-10-31 23:02:00,71.8,71.8,29.74,South,176,2.7,2.7,100,0.04,,SKC,0.51,VWS V13.01,2013-11-01 04:02:00,
2013-10-31 23:07:00,71.8,71.8,29.74,SSE,159,0.0,0.0,100,0.00,,SKC,0.51,VWS V13.01,2013-11-01 04:07:00,
2013-10-31 23:12:00,71.8,71.8,29.74,South,173,0.0,3.1,100,0.00,,SKC,0.51,VWS V13.01,2013-11-01 04:12:00,
2013-10-31 23:17:00,71.8,71.8,29.71,South,191,0.0,0.0,100,0.00,,SKC,0.51,VWS V13.01,2013-11-01 04:17:00,
2013-10-31 23:22:00,71.8,71.8,29.71,SSW,213,0.0,0.0,100,0.00,,SKC,0.51,VWS V13.01,2013-11-01 04:22:00,
2013-10-31 23:27:00,71.8,71.8,29.71,SSE,158,0.0,0.0,100,0.00,,SKC,0.51,VWS V13.01,2013-11-01 04:27:00,
2013-10-31 23:32:00,71.8,71.8,29.71,South,177,0.0,0.0,100,0.00,,SKC,0.51,VWS V13.01,2013-11-01 04:32:00,
2013-10-31 23:37:00,71.8,71.8,29.71,SSE,162,0.0,0.0,100,0.00,,SKC,0.51,VWS V13.01,2013-11-01 04:37:00,
2013-10-31 23:42:00,72.0,72.0,29.71,South,175,0.0,0.0,100,0.00,,SKC,0.51,VWS V13.01,2013-11-01 04:42:00,
2013-10-31 23:47:00,72.0,72.0,29.71,WSW,242,0.0,0.0,100,0.00,,SKC,0.51,VWS V13.01,2013-11-01 04:47:00,
2013-10-31 23:52:00,72.0,72.0,29.71,WSW,242,0.0,0.0,100,0.00,,SKC,0.51,VWS V13.01,2013-11-01 04:52:00,
2013-10-31 23:57:00,72.0,72.0,29.71,WSW,242,0.0,0.0,100,0.00,,SKC,0.51,VWS V13.01,2013-11-01 04:57:00,